Time;durP1;ratioP1;P1;durP2;ratioP2;P2;SDS_P1;SDS_P2;PMS_P1;PMS_P2;Temp;Humidity;BMP_temperature;BMP_pressure;BME280_temperature;BME280_humidity;BME280_pressure;Samples;Min_cycle;Max_cycle;Signal;HPM_P1;HPM_P2
2021/06/09 00:02:23;;;;;;;16.38;12.75;;;;;;;;;;5032279;28;20137;-62
2021/06/09 00:04:52;;;;;;;18.52;12.77;;;;;;;;;;5019963;28;20429;-62
2021/06/09 00:07:19;;;;;;;15.23;11.73;;;;;;;;;;5027694;28;20088;-62
2021/06/09 00:09:47;;;;;;;17.58;13.05;;;;;;;;;;5021577;28;20052;-61
2021/06/09 00:12:16;;;;;;;15.10;12.02;;;;;;;;;;5016970;28;20050;-62
2021/06/09 00:14:44;;;;;;;13.77;12.00;;;;;;;;;;5027579;28;20048;-62
2021/06/09 00:17:12;;;;;;;15.27;11.73;;;;;;;;;;5031428;28;20137;-62
2021/06/09 00:19:40;;;;;;;14.90;12.50;;;;;;;;;;5030681;28;20045;-61
2021/06/09 00:22:08;;;;;;;15.93;12.07;;;;;;;;;;5028274;28;20410;-61
2021/06/09 00:24:38;;;;;;;16.15;12.32;;;;;;;;;;5028645;28;20080;-61
2021/06/09 00:27:06;;;;;;;19.38;14.57;;;;;;;;;;5020561;28;20592;-61
2021/06/09 00:29:35;;;;;;;19.60;13.30;;;;;;;;;;5023823;28;20129;-62
2021/06/09 00:32:03;;;;;;;19.55;12.85;;;;;;;;;;5021232;28;20050;-62
2021/06/09 00:34:31;;;;;;;17.85;12.45;;;;;;;;;;5030677;28;20530;-62
2021/06/09 00:36:59;;;;;;;15.25;11.70;;;;;;;;;;5022355;28;20544;-62
2021/06/09 00:39:26;;;;;;;16.98;12.63;;;;;;;;;;5029145;28;20045;-62
2021/06/09 00:41:54;;;;;;;15.35;11.80;;;;;;;;;;5014939;28;20092;-62
2021/06/09 00:44:22;;;;;;;19.50;11.65;;;;;;;;;;5015982;28;20054;-62
2021/06/09 00:46:51;;;;;;;13.95;11.45;;;;;;;;;;5015589;28;20128;-62
2021/06/09 00:49:19;;;;;;;16.30;11.48;;;;;;;;;;5025883;28;20556;-62
2021/06/09 00:51:47;;;;;;;15.23;11.93;;;;;;;;;;5031134;28;20473;-62
2021/06/09 00:54:16;;;;;;;20.08;11.85;;;;;;;;;;5025663;28;20455;-62
2021/06/09 00:56:44;;;;;;;14.90;11.40;;;;;;;;;;5011739;28;20165;-62
2021/06/09 00:59:12;;;;;;;15.48;11.95;;;;;;;;;;5024107;28;20548;-62
2021/06/09 01:01:40;;;;;;;17.92;12.35;;;;;;;;;;5023982;28;20050;-62
2021/06/09 01:04:09;;;;;;;20.23;12.50;;;;;;;;;;5025160;28;20077;-62
2021/06/09 01:06:37;;;;;;;21.75;12.75;;;;;;;;;;5018169;28;20069;-62
2021/06/09 01:09:07;;;;;;;17.05;13.15;;;;;;;;;;5017229;28;20132;-62
2021/06/09 01:11:35;;;;;;;16.40;11.98;;;;;;;;;;5010687;28;20120;-62
2021/06/09 01:14:03;;;;;;;16.13;11.95;;;;;;;;;;5018419;28;20099;-62
2021/06/09 01:16:30;;;;;;;13.82;11.35;;;;;;;;;;5029583;28;20124;-62
2021/06/09 01:18:58;;;;;;;14.60;11.88;;;;;;;;;;5027006;28;20247;-62
2021/06/09 01:21:28;;;;;;;15.23;12.20;;;;;;;;;;5022191;28;20056;-62
2021/06/09 01:23:56;;;;;;;15.38;11.25;;;;;;;;;;5016481;28;20073;-62
2021/06/09 01:26:26;;;;;;;15.93;12.02;;;;;;;;;;5015154;28;20120;-62
2021/06/09 01:28:54;;;;;;;18.80;12.35;;;;;;;;;;5018425;28;20052;-62
2021/06/09 01:31:22;;;;;;;14.60;12.32;;;;;;;;;;5028366;28;20087;-62
2021/06/09 01:33:50;;;;;;;14.70;11.30;;;;;;;;;;5025645;28;20049;-62
2021/06/09 01:36:18;;;;;;;15.27;12.15;;;;;;;;;;5030576;28;20382;-62
2021/06/09 01:38:47;;;;;;;18.00;12.20;;;;;;;;;;5024964;28;20145;-62
2021/06/09 01:41:15;;;;;;;15.25;12.40;;;;;;;;;;5030757;28;20053;-62
2021/06/09 01:43:43;;;;;;;15.88;12.55;;;;;;;;;;5026000;28;20132;-62
2021/06/09 01:46:11;;;;;;;15.55;11.48;;;;;;;;;;5017960;28;20720;-62
2021/06/09 01:48:39;;;;;;;15.20;11.85;;;;;;;;;;5026633;28;20405;-62
2021/06/09 01:51:07;;;;;;;14.55;11.88;;;;;;;;;;5025363;28;20140;-62
2021/06/09 01:53:35;;;;;;;16.42;11.88;;;;;;;;;;5014334;28;20139;-62
2021/06/09 01:56:05;;;;;;;16.27;12.30;;;;;;;;;;5028179;28;20137;-62
2021/06/09 01:58:32;;;;;;;14.77;12.00;;;;;;;;;;5024592;28;20478;-62
2021/06/09 02:01:00;;;;;;;17.80;12.63;;;;;;;;;;5026401;28;20466;-62
2021/06/09 02:03:28;;;;;;;15.52;11.43;;;;;;;;;;5025797;28;20080;-62
2021/06/09 02:05:56;;;;;;;15.88;12.60;;;;;;;;;;5023630;28;20489;-62
2021/06/09 02:08:24;;;;;;;16.63;12.52;;;;;;;;;;5029617;28;20053;-62
2021/06/09 02:10:52;;;;;;;15.75;12.27;;;;;;;;;;5016272;28;20064;-62
2021/06/09 02:13:23;;;;;;;17.15;12.73;;;;;;;;;;5030088;28;20077;-62
2021/06/09 02:15:53;;;;;;;16.90;13.75;;;;;;;;;;5020663;28;20508;-62
2021/06/09 02:18:22;;;;;;;20.13;13.15;;;;;;;;;;5028602;28;20060;-62
2021/06/09 02:20:51;;;;;;;16.55;12.85;;;;;;;;;;5019579;28;20088;-62
2021/06/09 02:23:21;;;;;;;15.88;12.45;;;;;;;;;;5014742;28;20060;-62
2021/06/09 02:25:49;;;;;;;17.45;13.43;;;;;;;;;;5031042;28;20128;-62
2021/06/09 02:28:18;;;;;;;15.50;12.73;;;;;;;;;;5033634;28;20051;-62
2021/06/09 02:30:48;;;;;;;20.00;14.20;;;;;;;;;;5031963;28;20067;-62
2021/06/09 02:33:16;;;;;;;18.17;13.07;;;;;;;;;;5034373;28;20564;-62
2021/06/09 02:35:44;;;;;;;19.77;13.93;;;;;;;;;;5032607;28;20053;-62
2021/06/09 02:38:14;;;;;;;21.42;14.40;;;;;;;;;;5033002;28;20057;-62
2021/06/09 02:40:42;;;;;;;16.10;12.77;;;;;;;;;;5016698;28;20132;-62
2021/06/09 02:43:10;;;;;;;17.75;13.35;;;;;;;;;;5026883;28;20128;-62
2021/06/09 02:45:39;;;;;;;17.00;12.63;;;;;;;;;;5033314;28;20049;-62
2021/06/09 02:48:09;;;;;;;16.27;12.77;;;;;;;;;;5021294;28;20046;-62
2021/06/09 02:50:37;;;;;;;16.73;12.23;;;;;;;;;;5023661;28;20077;-62
2021/06/09 02:53:07;;;;;;;17.60;13.30;;;;;;;;;;5030724;28;20099;-62
2021/06/09 02:55:40;;;;;;;17.92;12.73;;;;;;;;;;5033561;28;20096;-61
2021/06/09 02:58:11;;;;;;;16.92;12.70;;;;;;;;;;5022168;28;20636;-61
2021/06/09 03:00:44;;;;;;;20.65;13.77;;;;;;;;;;5032362;28;20045;-61
2021/06/09 03:03:17;;;;;;;20.63;13.10;;;;;;;;;;5022599;28;20138;-61
2021/06/09 03:05:48;;;;;;;20.10;13.88;;;;;;;;;;5033398;28;20080;-62
2021/06/09 03:08:20;;;;;;;19.23;13.88;;;;;;;;;;5031254;28;20065;-62
2021/06/09 03:10:51;;;;;;;17.02;12.82;;;;;;;;;;5021908;28;20145;-62
2021/06/09 03:13:26;;;;;;;16.75;13.18;;;;;;;;;;5018573;28;20052;-62
2021/06/09 03:15:57;;;;;;;18.17;13.30;;;;;;;;;;5021422;28;20054;-62
2021/06/09 03:18:28;;;;;;;18.67;13.00;;;;;;;;;;5026909;28;20437;-62
2021/06/09 03:20:59;;;;;;;18.80;13.70;;;;;;;;;;5032754;28;20056;-62
2021/06/09 03:23:40;;;;;;;18.92;13.20;;;;;;;;;;5032589;28;20042;-62
2021/06/09 03:26:10;;;;;;;17.27;12.95;;;;;;;;;;5031537;28;20552;-62
2021/06/09 03:28:42;;;;;;;17.88;13.23;;;;;;;;;;5031394;28;20436;-62
2021/06/09 03:31:13;;;;;;;19.27;13.50;;;;;;;;;;5028062;28;20045;-62
2021/06/09 03:33:43;;;;;;;18.90;13.25;;;;;;;;;;5031466;28;20077;-62
2021/06/09 03:36:13;;;;;;;17.70;12.93;;;;;;;;;;5032608;28;20129;-62
2021/06/09 03:38:44;;;;;;;17.17;12.65;;;;;;;;;;5031503;28;20556;-62
2021/06/09 03:41:14;;;;;;;17.27;13.55;;;;;;;;;;5022532;28;20140;-62
2021/06/09 03:43:46;;;;;;;16.25;11.82;;;;;;;;;;5030729;28;20124;-61
2021/06/09 03:46:14;;;;;;;17.23;13.32;;;;;;;;;;5026834;28;20064;-62
2021/06/09 03:48:45;;;;;;;19.13;13.10;;;;;;;;;;5031826;28;20342;-62
2021/06/09 03:51:13;;;;;;;16.13;13.38;;;;;;;;;;5019965;28;20119;-62
2021/06/09 03:53:41;;;;;;;17.50;14.02;;;;;;;;;;5024801;28;20042;-62
2021/06/09 03:56:10;;;;;;;17.92;12.75;;;;;;;;;;5031958;28;20485;-62
2021/06/09 03:58:38;;;;;;;17.83;13.07;;;;;;;;;;5026393;28;20046;-62
2021/06/09 04:01:07;;;;;;;16.73;13.07;;;;;;;;;;5029809;28;20464;-62
2021/06/09 04:03:36;;;;;;;18.83;13.32;;;;;;;;;;5030745;28;20057;-62
2021/06/09 04:06:07;;;;;;;21.23;13.90;;;;;;;;;;5032056;28;20140;-63
2021/06/09 04:08:36;;;;;;;19.92;13.80;;;;;;;;;;5024695;28;20168;-62
2021/06/09 04:11:04;;;;;;;18.75;12.98;;;;;;;;;;5022215;28;20052;-62
2021/06/09 04:13:34;;;;;;;19.63;12.85;;;;;;;;;;5024666;28;20068;-62
2021/06/09 04:16:03;;;;;;;16.90;13.50;;;;;;;;;;5016642;28;20137;-62
2021/06/09 04:18:32;;;;;;;17.70;13.20;;;;;;;;;;5026245;28;20073;-62
2021/06/09 04:21:00;;;;;;;17.60;12.90;;;;;;;;;;5031458;28;20076;-62
2021/06/09 04:23:29;;;;;;;21.25;14.00;;;;;;;;;;5023860;28;20052;-62
2021/06/09 04:25:58;;;;;;;18.92;13.70;;;;;;;;;;5023794;28;20124;-62
2021/06/09 04:28:26;;;;;;;19.35;13.15;;;;;;;;;;5014984;28;20441;-63
2021/06/09 04:30:54;;;;;;;22.33;13.90;;;;;;;;;;5017954;28;20050;-63
2021/06/09 04:33:28;;;;;;;18.38;13.43;;;;;;;;;;5028582;28;20083;-63
2021/06/09 04:35:56;;;;;;;18.30;13.48;;;;;;;;;;5029235;28;20137;-63
2021/06/09 04:38:23;;;;;;;23.23;15.70;;;;;;;;;;5022076;28;20148;-62
2021/06/09 04:40:53;;;;;;;23.35;16.23;;;;;;;;;;5031851;28;20136;-62
2021/06/09 04:43:23;;;;;;;21.27;12.80;;;;;;;;;;5015382;28;20141;-62
2021/06/09 04:45:51;;;;;;;17.40;13.35;;;;;;;;;;5031135;28;20053;-62
2021/06/09 04:48:19;;;;;;;17.58;13.35;;;;;;;;;;5020973;28;20112;-63
2021/06/09 04:50:49;;;;;;;20.83;14.20;;;;;;;;;;5019905;28;20485;-63
2021/06/09 04:53:17;;;;;;;18.30;13.65;;;;;;;;;;5025498;28;20129;-63
2021/06/09 04:55:46;;;;;;;20.70;14.43;;;;;;;;;;5022494;28;20056;-63
2021/06/09 04:58:16;;;;;;;22.45;15.77;;;;;;;;;;5023933;28;20560;-63
2021/06/09 05:00:46;;;;;;;24.92;17.08;;;;;;;;;;5026787;28;20049;-63
2021/06/09 05:03:14;;;;;;;22.70;16.42;;;;;;;;;;5019701;28;20145;-63
2021/06/09 05:05:42;;;;;;;25.02;17.10;;;;;;;;;;5027495;28;20081;-63
2021/06/09 05:08:10;;;;;;;24.27;16.42;;;;;;;;;;5022387;28;20068;-63
2021/06/09 05:10:39;;;;;;;27.35;16.67;;;;;;;;;;5027347;28;20151;-63
2021/06/09 05:13:08;;;;;;;31.90;20.33;;;;;;;;;;5021671;28;20275;-63
2021/06/09 05:15:40;;;;;;;32.20;21.67;;;;;;;;;;5020266;28;20604;-63
2021/06/09 05:18:11;;;;;;;27.05;18.90;;;;;;;;;;5025814;28;20166;-63
2021/06/09 05:20:41;;;;;;;26.85;19.00;;;;;;;;;;5023726;28;20049;-63
2021/06/09 05:23:10;;;;;;;26.70;18.77;;;;;;;;;;5023129;28;20053;-63
2021/06/09 05:25:38;;;;;;;29.30;19.80;;;;;;;;;;5023019;28;20072;-63
2021/06/09 05:28:07;;;;;;;26.05;18.38;;;;;;;;;;5019554;28;20128;-62
2021/06/09 05:30:35;;;;;;;29.98;20.50;;;;;;;;;;5026532;28;20085;-63
2021/06/09 05:33:04;;;;;;;35.72;22.05;;;;;;;;;;5020548;28;20216;-63
2021/06/09 05:35:33;;;;;;;30.65;20.15;;;;;;;;;;5026317;28;20057;-63
2021/06/09 05:38:01;;;;;;;30.88;19.88;;;;;;;;;;5026143;28;20069;-63
2021/06/09 05:40:29;;;;;;;28.38;19.95;;;;;;;;;;5026883;28;20478;-63
2021/06/09 05:42:57;;;;;;;28.45;18.75;;;;;;;;;;5025311;28;20072;-63
2021/06/09 05:45:26;;;;;;;31.33;21.83;;;;;;;;;;5026507;28;20056;-63
2021/06/09 05:47:54;;;;;;;29.63;22.27;;;;;;;;;;5025092;28;20045;-63
2021/06/09 05:50:25;;;;;;;27.83;18.98;;;;;;;;;;5019926;28;20052;-63
2021/06/09 05:52:54;;;;;;;34.03;21.30;;;;;;;;;;5016732;28;20124;-62
2021/06/09 05:55:22;;;;;;;29.35;19.10;;;;;;;;;;5024469;28;20056;-62
2021/06/09 05:57:51;;;;;;;31.85;21.70;;;;;;;;;;5016924;28;20045;-63
2021/06/09 06:00:21;;;;;;;29.60;19.35;;;;;;;;;;5011440;28;20049;-62
2021/06/09 06:02:49;;;;;;;31.70;21.20;;;;;;;;;;5012507;28;20095;-62
2021/06/09 06:05:18;;;;;;;26.92;18.88;;;;;;;;;;5009896;28;20072;-63
2021/06/09 06:07:47;;;;;;;28.08;19.00;;;;;;;;;;5018891;28;20081;-63
2021/06/09 06:10:16;;;;;;;30.40;21.20;;;;;;;;;;5020298;28;20485;-63
2021/06/09 06:12:44;;;;;;;33.03;22.95;;;;;;;;;;5021943;28;20045;-63
2021/06/09 06:15:13;;;;;;;30.13;21.77;;;;;;;;;;5021712;28;20060;-62
2021/06/09 06:17:42;;;;;;;35.22;22.80;;;;;;;;;;5019209;28;20571;-63
2021/06/09 06:20:14;;;;;;;31.05;22.88;;;;;;;;;;5019302;28;20053;-62
2021/06/09 06:22:42;;;;;;;32.17;21.08;;;;;;;;;;5025556;28;20050;-62
2021/06/09 06:25:13;;;;;;;24.60;18.20;;;;;;;;;;5026119;28;20456;-62
2021/06/09 06:27:41;;;;;;;31.40;22.77;;;;;;;;;;5025546;28;20061;-62
2021/06/09 06:30:10;;;;;;;33.90;21.23;;;;;;;;;;5024842;28;20417;-62
2021/06/09 06:32:38;;;;;;;31.13;21.95;;;;;;;;;;5023901;28;20170;-62
2021/06/09 06:35:07;;;;;;;23.50;17.48;;;;;;;;;;5026031;28;20516;-62
2021/06/09 06:37:35;;;;;;;25.17;18.27;;;;;;;;;;5016319;28;20057;-62
2021/06/09 06:40:03;;;;;;;30.27;21.05;;;;;;;;;;5022646;28;20132;-62
2021/06/09 06:42:33;;;;;;;27.48;19.00;;;;;;;;;;5026632;28;20160;-62
2021/06/09 06:45:00;;;;;;;25.13;16.63;;;;;;;;;;5014199;28;20129;-62
2021/06/09 06:47:29;;;;;;;20.67;15.50;;;;;;;;;;5022757;28;20059;-62
2021/06/09 06:49:58;;;;;;;22.67;16.55;;;;;;;;;;5014916;28;20048;-62
2021/06/09 06:52:28;;;;;;;24.92;17.00;;;;;;;;;;5017071;28;20448;-63
2021/06/09 06:54:58;;;;;;;22.55;16.02;;;;;;;;;;5018741;28;20332;-62
2021/06/09 06:57:27;;;;;;;23.10;15.95;;;;;;;;;;5019758;28;20049;-63
2021/06/09 06:59:56;;;;;;;26.77;17.33;;;;;;;;;;5024578;28;20084;-62
2021/06/09 07:02:25;;;;;;;26.98;19.00;;;;;;;;;;5029201;28;20509;-63
2021/06/09 07:04:53;;;;;;;22.80;16.13;;;;;;;;;;5029675;28;20041;-63
2021/06/09 07:07:21;;;;;;;26.38;18.58;;;;;;;;;;5027683;28;20521;-63
2021/06/09 07:09:49;;;;;;;32.38;18.08;;;;;;;;;;5027868;28;20095;-63
2021/06/09 07:12:18;;;;;;;26.98;18.42;;;;;;;;;;5032991;28;20460;-62
2021/06/09 07:14:46;;;;;;;24.90;18.33;;;;;;;;;;5021775;28;20136;-62
2021/06/09 07:17:16;;;;;;;26.98;19.25;;;;;;;;;;5024006;28;20058;-62
2021/06/09 07:19:44;;;;;;;27.95;19.63;;;;;;;;;;5020541;28;20046;-61
2021/06/09 07:22:14;;;;;;;25.88;18.92;;;;;;;;;;5012190;28;20052;-61
2021/06/09 07:24:43;;;;;;;28.67;20.70;;;;;;;;;;5027806;28;20451;-61
2021/06/09 07:27:11;;;;;;;28.35;19.38;;;;;;;;;;5028513;28;20053;-61
2021/06/09 07:29:39;;;;;;;24.75;17.85;;;;;;;;;;5028834;28;20380;-61
2021/06/09 07:32:09;;;;;;;26.50;18.55;;;;;;;;;;5029927;28;20060;-61
2021/06/09 07:34:38;;;;;;;21.88;17.23;;;;;;;;;;5031369;28;20049;-61
2021/06/09 07:37:11;;;;;;;25.13;19.15;;;;;;;;;;5031376;28;20111;-61
2021/06/09 07:39:41;;;;;;;25.98;17.33;;;;;;;;;;5032945;28;20732;-61
2021/06/09 07:42:10;;;;;;;25.85;19.92;;;;;;;;;;5031581;28;20263;-61
2021/06/09 07:44:40;;;;;;;24.42;18.55;;;;;;;;;;5031344;28;20041;-61
2021/06/09 07:47:09;;;;;;;24.25;18.27;;;;;;;;;;5029920;28;20045;-61
2021/06/09 07:49:39;;;;;;;29.38;18.33;;;;;;;;;;5023494;28;20069;-61
2021/06/09 07:52:10;;;;;;;26.50;18.33;;;;;;;;;;5031923;28;20049;-61
2021/06/09 07:54:38;;;;;;;25.23;18.35;;;;;;;;;;5023578;28;20453;-61
2021/06/09 07:57:07;;;;;;;25.88;19.48;;;;;;;;;;5030909;28;20413;-61
2021/06/09 07:59:35;;;;;;;28.77;19.27;;;;;;;;;;5032477;28;20053;-61
2021/06/09 08:02:04;;;;;;;21.67;16.70;;;;;;;;;;5028466;28;20081;-63
2021/06/09 08:04:32;;;;;;;21.63;17.58;;;;;;;;;;5019753;28;20148;-64
2021/06/09 08:07:02;;;;;;;20.00;16.17;;;;;;;;;;5022696;28;20064;-64
2021/06/09 08:09:31;;;;;;;24.77;16.45;;;;;;;;;;5021103;28;20141;-64
2021/06/09 08:12:01;;;;;;;31.55;17.92;;;;;;;;;;5030630;28;20393;-64
2021/06/09 08:14:30;;;;;;;25.38;17.27;;;;;;;;;;5018793;28;20046;-64
2021/06/09 08:16:58;;;;;;;21.95;15.75;;;;;;;;;;5018735;28;20049;-64
2021/06/09 08:19:26;;;;;;;23.45;16.95;;;;;;;;;;5024254;28;20049;-64
2021/06/09 08:21:54;;;;;;;23.48;16.90;;;;;;;;;;5024181;28;20045;-64
2021/06/09 08:24:24;;;;;;;19.70;15.13;;;;;;;;;;5031610;28;20050;-64
2021/06/09 08:27:00;;;;;;;21.48;14.75;;;;;;;;;;5029959;28;20796;-64
2021/06/09 08:29:29;;;;;;;24.08;17.92;;;;;;;;;;5019752;28;20042;-64
2021/06/09 08:31:57;;;;;;;23.00;16.30;;;;;;;;;;5023748;28;20049;-64
2021/06/09 08:34:25;;;;;;;18.75;14.60;;;;;;;;;;5028675;28;20520;-63
2021/06/09 08:36:55;;;;;;;18.77;13.60;;;;;;;;;;5016765;28;20116;-64
2021/06/09 08:39:26;;;;;;;21.58;15.00;;;;;;;;;;5025138;28;20052;-64
2021/06/09 08:41:55;;;;;;;18.70;15.02;;;;;;;;;;5014663;28;20132;-64
2021/06/09 08:44:24;;;;;;;21.73;16.20;;;;;;;;;;5027800;28;20060;-64
2021/06/09 08:46:57;;;;;;;20.17;15.27;;;;;;;;;;5022909;28;20057;-64
2021/06/09 08:49:25;;;;;;;21.98;16.75;;;;;;;;;;5024195;28;20049;-64
2021/06/09 08:51:54;;;;;;;18.92;14.90;;;;;;;;;;5026598;28;20056;-64
2021/06/09 08:54:23;;;;;;;20.92;14.57;;;;;;;;;;5024585;28;20095;-64
2021/06/09 08:56:53;;;;;;;21.30;15.35;;;;;;;;;;5015935;28;20099;-64
2021/06/09 08:59:24;;;;;;;23.00;18.50;;;;;;;;;;5027237;28;20045;-64
2021/06/09 09:01:53;;;;;;;20.58;15.23;;;;;;;;;;5028820;28;20107;-64
2021/06/09 09:04:22;;;;;;;22.40;14.60;;;;;;;;;;5022433;28;20046;-64
2021/06/09 09:06:50;;;;;;;20.08;14.88;;;;;;;;;;5026945;28;20041;-64
2021/06/09 09:09:18;;;;;;;21.67;16.30;;;;;;;;;;5022235;28;20124;-64
2021/06/09 09:11:46;;;;;;;24.23;17.08;;;;;;;;;;5018991;28;20038;-64
2021/06/09 09:14:18;;;;;;;22.15;15.10;;;;;;;;;;5015156;28;20562;-64
2021/06/09 09:17:02;;;;;;;17.77;14.52;;;;;;;;;;5030096;28;20061;-64
2021/06/09 09:19:32;;;;;;;16.07;13.33;;;;;;;;;;5027654;28;20445;-64
2021/06/09 09:22:01;;;;;;;19.50;16.33;;;;;;;;;;5030109;28;20053;-64
2021/06/09 09:24:43;;;;;;;18.10;14.25;;;;;;;;;;5028788;28;20046;-64
2021/06/09 09:27:15;;;;;;;20.42;14.75;;;;;;;;;;5017907;28;20045;-64
2021/06/09 09:29:58;;;;;;;24.13;17.35;;;;;;;;;;5020271;28;20112;-64
2021/06/09 09:32:27;;;;;;;22.00;16.88;;;;;;;;;;5021853;28;20131;-64
2021/06/09 09:35:04;;;;;;;21.00;16.20;;;;;;;;;;5028057;28;20046;-64
2021/06/09 09:37:33;;;;;;;19.80;14.63;;;;;;;;;;5028216;28;20096;-64
2021/06/09 09:40:13;;;;;;;16.45;13.70;;;;;;;;;;5025863;28;20057;-64
2021/06/09 09:42:42;;;;;;;16.73;13.48;;;;;;;;;;5031865;28;20050;-64
2021/06/09 09:45:14;;;;;;;16.65;13.95;;;;;;;;;;5031430;28;20053;-64
2021/06/09 09:47:44;;;;;;;22.40;16.77;;;;;;;;;;5030512;28;20063;-64
2021/06/09 09:50:32;;;;;;;15.95;13.55;;;;;;;;;;5019297;28;20049;-64
2021/06/09 09:53:17;;;;;;;18.42;13.98;;;;;;;;;;5023777;28;20069;-64
2021/06/09 09:56:09;;;;;;;17.67;13.52;;;;;;;;;;5025150;28;20084;-64
2021/06/09 09:58:39;;;;;;;16.40;12.25;;;;;;;;;;4989708;28;20115;-64
2021/06/09 10:01:24;;;;;;;14.68;11.90;;;;;;;;;;5009377;28;20056;-64
2021/06/09 10:03:54;;;;;;;12.65;11.32;;;;;;;;;;4998660;28;20050;-65
2021/06/09 10:06:26;;;;;;;17.98;14.68;;;;;;;;;;5002683;28;20070;-64
2021/06/09 10:08:55;;;;;;;15.60;13.20;;;;;;;;;;5002799;28;20050;-64
2021/06/09 10:11:25;;;;;;;14.32;12.82;;;;;;;;;;5006470;28;20096;-64
2021/06/09 10:13:54;;;;;;;15.20;12.95;;;;;;;;;;4997849;28;20180;-64
2021/06/09 10:16:24;;;;;;;14.60;10.82;;;;;;;;;;4997648;28;20080;-64
2021/06/09 10:19:02;;;;;;;16.80;12.18;;;;;;;;;;4994545;28;20466;-64
2021/06/09 10:21:30;;;;;;;13.90;10.60;;;;;;;;;;5003860;28;20050;-64
2021/06/09 10:24:03;;;;;;;14.38;10.75;;;;;;;;;;5004864;28;20060;-64
2021/06/09 10:26:31;;;;;;;13.23;10.48;;;;;;;;;;4996348;28;20054;-64
2021/06/09 10:29:04;;;;;;;11.85;10.20;;;;;;;;;;5006838;28;20112;-64
2021/06/09 10:31:33;;;;;;;10.57;9.25;;;;;;;;;;5007458;28;20535;-64
2021/06/09 10:34:03;;;;;;;12.02;8.88;;;;;;;;;;5006614;28;20134;-64
2021/06/09 10:36:33;;;;;;;9.52;8.52;;;;;;;;;;4996842;28;20046;-64
2021/06/09 10:39:01;;;;;;;14.20;9.75;;;;;;;;;;5000971;28;20097;-64
2021/06/09 10:41:30;;;;;;;9.75;8.75;;;;;;;;;;5003901;28;20073;-64
2021/06/09 10:44:02;;;;;;;13.27;10.23;;;;;;;;;;4998626;28;20065;-64
2021/06/09 10:46:30;;;;;;;11.32;8.65;;;;;;;;;;5002628;28;20080;-64
2021/06/09 10:49:01;;;;;;;9.20;8.23;;;;;;;;;;5000648;28;20069;-64
2021/06/09 10:51:30;;;;;;;9.80;8.60;;;;;;;;;;5006335;28;20568;-65
2021/06/09 10:54:00;;;;;;;9.50;8.02;;;;;;;;;;4995258;28;20094;-64
2021/06/09 10:56:28;;;;;;;13.82;8.20;;;;;;;;;;5004770;28;20093;-64
2021/06/09 10:58:56;;;;;;;9.48;8.32;;;;;;;;;;5000170;28;20046;-64
2021/06/09 11:01:25;;;;;;;8.32;7.47;;;;;;;;;;5009362;28;20099;-64
2021/06/09 11:03:58;;;;;;;9.35;7.95;;;;;;;;;;5008394;28;20109;-64
2021/06/09 11:06:41;;;;;;;12.40;8.40;;;;;;;;;;5003591;28;20459;-64
2021/06/09 11:09:21;;;;;;;8.85;7.95;;;;;;;;;;5002149;28;20046;-64
2021/06/09 11:11:50;;;;;;;8.80;7.55;;;;;;;;;;5005153;28;20046;-64
2021/06/09 11:14:22;;;;;;;9.45;7.47;;;;;;;;;;5003448;28;20048;-64
2021/06/09 11:16:50;;;;;;;8.18;7.38;;;;;;;;;;5003033;28;20112;-64
2021/06/09 11:19:33;;;;;;;9.45;7.32;;;;;;;;;;4995780;28;20054;-65
2021/06/09 11:22:16;;;;;;;9.95;7.40;;;;;;;;;;4996742;28;20085;-65
2021/06/09 11:24:58;;;;;;;9.98;7.30;;;;;;;;;;5000059;28;20135;-65
2021/06/09 11:27:30;;;;;;;9.02;7.65;;;;;;;;;;5002293;28;20140;-65
2021/06/09 11:29:58;;;;;;;8.63;7.70;;;;;;;;;;4993716;28;20059;-65
2021/06/09 11:32:26;;;;;;;9.80;8.80;;;;;;;;;;5008033;28;20049;-65
2021/06/09 11:34:57;;;;;;;8.80;7.75;;;;;;;;;;5002419;28;20133;-65
2021/06/09 11:37:26;;;;;;;10.77;7.75;;;;;;;;;;5006464;28;20132;-65
2021/06/09 11:40:01;;;;;;;8.77;7.20;;;;;;;;;;5006011;28;20046;-65
2021/06/09 11:42:29;;;;;;;9.15;7.45;;;;;;;;;;5010234;28;20053;-65
2021/06/09 11:44:58;;;;;;;10.82;7.95;;;;;;;;;;5001170;28;20414;-65
2021/06/09 11:47:27;;;;;;;8.48;7.40;;;;;;;;;;5005502;28;20070;-65
2021/06/09 11:49:56;;;;;;;11.65;8.48;;;;;;;;;;5010997;28;20551;-64
2021/06/09 11:52:24;;;;;;;9.75;8.02;;;;;;;;;;5010722;28;20049;-65
2021/06/09 11:55:07;;;;;;;8.00;7.20;;;;;;;;;;4994097;28;20140;-65
2021/06/09 11:57:36;;;;;;;9.30;7.53;;;;;;;;;;5006163;28;20123;-65
2021/06/09 12:00:06;;;;;;;11.68;7.78;;;;;;;;;;5010701;28;20136;-64
2021/06/09 12:02:34;;;;;;;10.43;7.75;;;;;;;;;;5000113;28;20058;-65
2021/06/09 12:05:04;;;;;;;10.82;7.68;;;;;;;;;;4996840;28;20434;-65
2021/06/09 12:07:33;;;;;;;10.52;7.07;;;;;;;;;;5019062;28;20041;-65
2021/06/09 12:10:02;;;;;;;8.68;7.53;;;;;;;;;;5025492;28;20049;-65
2021/06/09 12:12:31;;;;;;;8.85;7.82;;;;;;;;;;5030409;28;20053;-65
2021/06/09 12:15:02;;;;;;;9.30;7.63;;;;;;;;;;5028137;28;20165;-65
2021/06/09 12:17:31;;;;;;;9.55;7.40;;;;;;;;;;5017673;28;20050;-65
2021/06/09 12:20:00;;;;;;;8.35;7.25;;;;;;;;;;5007769;28;20489;-65
2021/06/09 12:22:30;;;;;;;8.48;6.47;;;;;;;;;;5010455;28;20046;-65
2021/06/09 12:24:59;;;;;;;11.15;7.32;;;;;;;;;;5010239;28;20060;-65
2021/06/09 12:27:28;;;;;;;7.25;6.55;;;;;;;;;;5020935;28;20489;-65
2021/06/09 12:30:02;;;;;;;12.32;7.00;;;;;;;;;;5021856;28;20053;-65
2021/06/09 12:32:31;;;;;;;8.43;7.10;;;;;;;;;;5025290;28;20049;-65
2021/06/09 12:35:01;;;;;;;9.50;7.60;;;;;;;;;;5017558;28;20426;-65
2021/06/09 12:37:44;;;;;;;11.55;7.75;;;;;;;;;;2700408;28;10002345;-65
2021/06/09 12:40:14;;;;;;;11.55;8.02;;;;;;;;;;3292291;28;10002213;-64
2021/06/09 12:42:47;;;;;;;12.63;7.45;;;;;;;;;;5026443;28;20038;-65
2021/06/09 12:45:18;;;;;;;9.75;6.82;;;;;;;;;;5023570;28;20422;-64
2021/06/09 12:47:46;;;;;;;8.82;6.53;;;;;;;;;;5014004;28;20116;-65
2021/06/09 12:50:17;;;;;;;7.43;6.45;;;;;;;;;;5009499;28;20061;-65
2021/06/09 12:52:46;;;;;;;10.63;6.60;;;;;;;;;;5008753;28;20084;-64
2021/06/09 12:55:16;;;;;;;8.48;6.53;;;;;;;;;;5001748;28;20038;-65
2021/06/09 12:57:45;;;;;;;8.05;7.15;;;;;;;;;;5013435;28;20144;-64
2021/06/09 13:00:31;;;;;;;10.02;7.68;;;;;;;;;;5018970;28;20056;-65
2021/06/09 13:03:09;;;;;;;10.75;7.22;;;;;;;;;;5014233;28;20081;-65
2021/06/09 13:05:38;;;;;;;8.30;7.10;;;;;;;;;;5020892;28;20081;-65
2021/06/09 13:08:10;;;;;;;8.18;7.18;;;;;;;;;;5014117;28;20483;-65
2021/06/09 13:10:38;;;;;;;13.82;8.82;;;;;;;;;;5015061;28;20056;-65
2021/06/09 13:13:07;;;;;;;12.30;9.13;;;;;;;;;;5019839;28;20072;-64
2021/06/09 13:15:36;;;;;;;16.17;9.80;;;;;;;;;;5022442;28;20057;-64
2021/06/09 13:18:06;;;;;;;11.05;9.45;;;;;;;;;;5010571;28;20055;-64
2021/06/09 13:20:35;;;;;;;10.48;8.98;;;;;;;;;;5022684;28;20099;-65
2021/06/09 13:23:07;;;;;;;12.70;8.68;;;;;;;;;;5023980;28;20045;-65
2021/06/09 13:25:36;;;;;;;9.93;8.07;;;;;;;;;;5020574;28;20525;-64
2021/06/09 13:28:05;;;;;;;10.90;8.07;;;;;;;;;;5021576;28;20119;-64
2021/06/09 13:30:33;;;;;;;12.48;8.85;;;;;;;;;;5020146;28;20129;-64
2021/06/09 13:33:04;;;;;;;13.07;8.52;;;;;;;;;;5017548;28;20576;-64
2021/06/09 13:35:32;;;;;;;10.73;8.23;;;;;;;;;;5022954;28;20512;-65
2021/06/09 13:38:02;;;;;;;9.60;8.43;;;;;;;;;;5024201;28;20507;-65
2021/06/09 13:40:30;;;;;;;11.93;8.88;;;;;;;;;;5022416;28;20509;-65
2021/06/09 13:42:59;;;;;;;11.40;8.90;;;;;;;;;;5021606;28;20072;-65
2021/06/09 13:45:28;;;;;;;10.23;8.25;;;;;;;;;;5021128;28;20080;-65
2021/06/09 13:48:04;;;;;;;10.43;8.43;;;;;;;;;;5020328;28;20505;-65
2021/06/09 13:50:32;;;;;;;12.23;8.70;;;;;;;;;;5015019;28;20041;-65
2021/06/09 13:53:01;;;;;;;13.43;8.57;;;;;;;;;;5021839;28;20056;-65
2021/06/09 13:55:30;;;;;;;13.57;8.80;;;;;;;;;;5027769;28;20091;-65
2021/06/09 13:57:58;;;;;;;12.15;8.35;;;;;;;;;;5021956;28;20647;-65
2021/06/09 14:00:34;;;;;;;10.13;8.38;;;;;;;;;;5020142;28;20446;-65
2021/06/09 14:03:14;;;;;;;12.35;8.95;;;;;;;;;;5016363;28;20049;-65
2021/06/09 14:05:44;;;;;;;12.52;8.90;;;;;;;;;;5019942;28;20053;-64
2021/06/09 14:08:14;;;;;;;9.70;8.68;;;;;;;;;;5014757;28;20745;-65
2021/06/09 14:10:44;;;;;;;10.77;8.63;;;;;;;;;;5020627;28;20054;-65
2021/06/09 14:13:14;;;;;;;11.60;9.55;;;;;;;;;;5031266;28;20168;-65
2021/06/09 14:15:48;;;;;;;10.35;9.02;;;;;;;;;;5030660;28;20060;-65
2021/06/09 14:18:16;;;;;;;13.40;9.73;;;;;;;;;;5018488;28;20049;-65
2021/06/09 14:20:47;;;;;;;16.73;10.82;;;;;;;;;;5019876;28;20052;-65
2021/06/09 14:23:21;;;;;;;13.85;10.25;;;;;;;;;;5023164;28;20141;-65
2021/06/09 14:25:49;;;;;;;13.23;9.73;;;;;;;;;;5030898;28;20054;-64
2021/06/09 14:28:18;;;;;;;9.20;8.15;;;;;;;;;;5026038;28;20049;-65
2021/06/09 14:30:47;;;;;;;12.57;9.38;;;;;;;;;;5027073;28;20054;-65
2021/06/09 14:33:24;;;;;;;11.95;8.65;;;;;;;;;;5017706;28;20276;-65
2021/06/09 14:36:01;;;;;;;12.27;7.97;;;;;;;;;;5023575;28;20081;-65
2021/06/09 14:38:31;;;;;;;9.48;8.32;;;;;;;;;;5021991;28;20188;-65